PWSweather.com
Personal Weather Stations
Station Observations
KNCCHINA3
Red Tractor Trail, China Grove, NC 28023

Red Tractor TrailChina Grove, NC 28023

Lat: 35.59751, Lon: -80.60201

Elevation: 800

Station Type: Oregon Scientific WMR 968

http://www.joesweathergarage.com

Latest ConditionsUpdated 11:50:11 AM EDT Friday, Aug 1, 2014
Currently Today's Max Today's Min Today's Average
Temperature 64.9°F18.3°C 67.8°F19.9°C 64.2°F17.9°C 65.8°F18.8°C
Dew Point 64.9°F18.3°C 67.8°F19.9°C 64.2°F17.9°C 65.8°F18.8°C
Winds - N16091.8 kmh N Calm Calm - Calm Calm
Wind Gusts -- -- - -
Humidity 100% 100% 100% 100%
Pressure 30.10 in1019.3 mb 30.16 in1021.3 mb 30.07 in1018.3 mb -
Precipitation - 2.28 in57.9 mm - -
Hour Temp Dew Point Humidity Winds Wind Gusts Pressure Precip Precip Rate Daily Precip Total
11:50 AM 64.9°F18.3°C 64.9°F18.3°C 100% - N16091.8 kmh N -- 30.10 in1019.3 mb 0.04 in1.0 mm 0.00 in/hr0.0 mm/hr 2.28 in57.9 mm
11:45 AM 64.9°F18.3°C 64.9°F18.3°C 100% - N16091.8 kmh N -- 30.10 in1019.3 mb 0.04 in1.0 mm 0.00 in/hr0.0 mm/hr 2.28 in57.9 mm
11:39 AM 64.8°F18.2°C 64.8°F18.2°C 100% - N16091.8 kmh N -- 30.10 in1019.3 mb 0.04 in1.0 mm 0.00 in/hr0.0 mm/hr 2.28 in57.9 mm
11:34 AM 64.6°F18.1°C 64.6°F18.1°C 100% - N16091.8 kmh N -- 30.10 in1019.3 mb 0.04 in1.0 mm 0.00 in/hr0.0 mm/hr 2.28 in57.9 mm
11:30 AM 64.6°F18.1°C 64.6°F18.1°C 100% - N16091.8 kmh N -- 30.10 in1019.3 mb 0.04 in1.0 mm 0.00 in/hr0.0 mm/hr 2.28 in57.9 mm
11:24 AM 64.8°F18.2°C 64.8°F18.2°C 100% - N16091.8 kmh N -- 30.13 in1020.3 mb 0.08 in2.0 mm 0.30 in/hr7.6 mm/hr 2.28 in57.9 mm
11:16 AM 64.8°F18.2°C 64.8°F18.2°C 100% - N16091.8 kmh N -- 30.13 in1020.3 mb 0.04 in1.0 mm 0.00 in/hr0.0 mm/hr 2.24 in56.9 mm
11:11 AM 64.8°F18.2°C 64.8°F18.2°C 100% - N16091.8 kmh N -- 30.13 in1020.3 mb 0.04 in1.0 mm 0.00 in/hr0.0 mm/hr 2.24 in56.9 mm
11:04 AM 64.8°F18.2°C 64.8°F18.2°C 100% - N16091.8 kmh N -- 30.13 in1020.3 mb 0.07 in1.8 mm 0.00 in/hr0.0 mm/hr 2.24 in56.9 mm
10:59 AM 64.6°F18.1°C 64.6°F18.1°C 100% - N16091.8 kmh N -- 30.13 in1020.3 mb 0.07 in1.8 mm 0.00 in/hr0.0 mm/hr 2.24 in56.9 mm
10:54 AM 64.6°F18.1°C 64.6°F18.1°C 100% - N16091.8 kmh N -- 30.13 in1020.3 mb 0.11 in2.8 mm 0.00 in/hr0.0 mm/hr 2.24 in56.9 mm
10:49 AM 64.4°F18.0°C 64.4°F18.0°C 100% - N16091.8 kmh N -- 30.13 in1020.3 mb 0.11 in2.8 mm 0.00 in/hr0.0 mm/hr 2.24 in56.9 mm
10:43 AM 64.4°F18.0°C 64.4°F18.0°C 100% - N16091.8 kmh N -- 30.13 in1020.3 mb 0.15 in3.8 mm 0.00 in/hr0.0 mm/hr 2.24 in56.9 mm
10:38 AM 64.4°F18.0°C 64.4°F18.0°C 100% - N16091.8 kmh N -- 30.13 in1020.3 mb 0.15 in3.8 mm 0.00 in/hr0.0 mm/hr 2.24 in56.9 mm
10:33 AM 64.2°F17.9°C 64.2°F17.9°C 100% - N16091.8 kmh N -- 30.13 in1020.3 mb 0.19 in4.8 mm 0.00 in/hr0.0 mm/hr 2.24 in56.9 mm
10:28 AM 64.2°F17.9°C 64.2°F17.9°C 100% - N16091.8 kmh N -- 30.13 in1020.3 mb 0.23 in5.8 mm 0.48 in/hr12.2 mm/hr 2.24 in56.9 mm
10:23 AM 64.2°F17.9°C 64.2°F17.9°C 100% - N16091.8 kmh N -- 30.13 in1020.3 mb 0.19 in4.8 mm 0.00 in/hr0.0 mm/hr 2.20 in55.9 mm
10:18 AM 64.2°F17.9°C 64.2°F17.9°C 100% - N16091.8 kmh N -- 30.13 in1020.3 mb 0.19 in4.8 mm 0.00 in/hr0.0 mm/hr 2.20 in55.9 mm
10:13 AM 64.2°F17.9°C 64.2°F17.9°C 100% - N16091.8 kmh N -- 30.13 in1020.3 mb 0.23 in5.8 mm 0.36 in/hr9.1 mm/hr 2.20 in55.9 mm
10:08 AM 64.2°F17.9°C 64.2°F17.9°C 100% - N16091.8 kmh N -- 30.13 in1020.3 mb 0.20 in5.1 mm 0.00 in/hr0.0 mm/hr 2.17 in55.1 mm
10:03 AM 64.2°F17.9°C 64.2°F17.9°C 100% - N16091.8 kmh N -- 30.13 in1020.3 mb 0.20 in5.1 mm 0.00 in/hr0.0 mm/hr 2.17 in55.1 mm
09:58 AM 64.2°F17.9°C 64.2°F17.9°C 100% - N16091.8 kmh N -- 30.13 in1020.3 mb 0.24 in6.1 mm 0.48 in/hr12.2 mm/hr 2.17 in55.1 mm
09:53 AM 64.2°F17.9°C 64.2°F17.9°C 100% - N16091.8 kmh N -- 30.13 in1020.3 mb 0.20 in5.1 mm 0.48 in/hr12.2 mm/hr 2.13 in54.1 mm
09:48 AM 64.2°F17.9°C 64.2°F17.9°C 100% - N16091.8 kmh N -- 30.13 in1020.3 mb 0.16 in4.1 mm 0.00 in/hr0.0 mm/hr 2.09 in53.1 mm
09:42 AM 64.2°F17.9°C 64.2°F17.9°C 100% - N16091.8 kmh N -- 30.13 in1020.3 mb 0.16 in4.1 mm 0.00 in/hr0.0 mm/hr 2.09 in53.1 mm
09:37 AM 64.2°F17.9°C 64.2°F17.9°C 100% - N16091.8 kmh N -- 30.13 in1020.3 mb 0.20 in5.1 mm 0.48 in/hr12.2 mm/hr 2.09 in53.1 mm
09:32 AM 64.2°F17.9°C 64.2°F17.9°C 100% - N16091.8 kmh N -- 30.13 in1020.3 mb 0.16 in4.1 mm 0.00 in/hr0.0 mm/hr 2.05 in52.1 mm
09:27 AM 64.4°F18.0°C 64.4°F18.0°C 100% - N16091.8 kmh N -- 30.13 in1020.3 mb 0.16 in4.1 mm 0.00 in/hr0.0 mm/hr 2.01 in51.1 mm
09:22 AM 64.4°F18.0°C 64.4°F18.0°C 100% - N16091.8 kmh N -- 30.13 in1020.3 mb 0.16 in4.1 mm 0.00 in/hr0.0 mm/hr 2.01 in51.1 mm
09:17 AM 64.4°F18.0°C 64.4°F18.0°C 100% - N16091.8 kmh N -- 30.13 in1020.3 mb 0.16 in4.1 mm 0.48 in/hr12.2 mm/hr 2.01 in51.1 mm
09:12 AM 64.4°F18.0°C 64.4°F18.0°C 100% - N16091.8 kmh N -- 30.13 in1020.3 mb 0.12 in3.0 mm 0.00 in/hr0.0 mm/hr 1.97 in50.0 mm
09:07 AM 64.4°F18.0°C 64.4°F18.0°C 100% - N16091.8 kmh N -- 30.13 in1020.3 mb 0.12 in3.0 mm 0.00 in/hr0.0 mm/hr 1.97 in50.0 mm
09:02 AM 64.2°F17.9°C 64.2°F17.9°C 100% - N16091.8 kmh N -- 30.13 in1020.3 mb 0.12 in3.0 mm 0.04 in/hr1.0 mm/hr 1.97 in50.0 mm
08:57 AM 64.2°F17.9°C 64.2°F17.9°C 100% - N16091.8 kmh N -- 30.13 in1020.3 mb 0.08 in2.0 mm 0.00 in/hr0.0 mm/hr 1.93 in49.0 mm
08:51 AM 64.2°F17.9°C 64.2°F17.9°C 100% - N16091.8 kmh N -- 30.13 in1020.3 mb 0.16 in4.1 mm 0.00 in/hr0.0 mm/hr 1.93 in49.0 mm
08:45 AM 64.4°F18.0°C 64.4°F18.0°C 100% - N16091.8 kmh N -- 30.13 in1020.3 mb 0.24 in6.1 mm 0.00 in/hr0.0 mm/hr 1.93 in49.0 mm
08:41 AM 64.4°F18.0°C 64.4°F18.0°C 100% - N16091.8 kmh N -- 30.13 in1020.3 mb 0.28 in7.1 mm 0.48 in/hr12.2 mm/hr 1.93 in49.0 mm
08:36 AM 64.4°F18.0°C 64.4°F18.0°C 100% - N16091.8 kmh N -- 30.13 in1020.3 mb 0.24 in6.1 mm 0.00 in/hr0.0 mm/hr 1.89 in48.0 mm
08:31 AM 64.4°F18.0°C 64.4°F18.0°C 100% - N16091.8 kmh N -- 30.13 in1020.3 mb 0.28 in7.1 mm 0.48 in/hr12.2 mm/hr 1.89 in48.0 mm
08:26 AM 64.6°F18.1°C 64.6°F18.1°C 100% - N16091.8 kmh N -- 30.10 in1019.3 mb 0.24 in6.1 mm 0.00 in/hr0.0 mm/hr 1.85 in47.0 mm
08:21 AM 64.6°F18.1°C 64.6°F18.1°C 100% - N16091.8 kmh N -- 30.10 in1019.3 mb 0.28 in7.1 mm 0.00 in/hr0.0 mm/hr 1.85 in47.0 mm
08:16 AM 64.8°F18.2°C 64.8°F18.2°C 100% - N16091.8 kmh N -- 30.10 in1019.3 mb 0.35 in8.9 mm 0.00 in/hr0.0 mm/hr 1.85 in47.0 mm
08:11 AM 64.8°F18.2°C 64.8°F18.2°C 100% - N16091.8 kmh N -- 30.13 in1020.3 mb 0.51 in13.0 mm 0.00 in/hr0.0 mm/hr 1.85 in47.0 mm
08:05 AM 64.8°F18.2°C 64.8°F18.2°C 100% - N16091.8 kmh N -- 30.13 in1020.3 mb 0.71 in18.0 mm 0.00 in/hr0.0 mm/hr 1.85 in47.0 mm
08:01 AM 64.8°F18.2°C 64.8°F18.2°C 100% - N16091.8 kmh N -- 30.13 in1020.3 mb 0.75 in19.1 mm 0.04 in/hr1.0 mm/hr 1.85 in47.0 mm
07:55 AM 64.8°F18.2°C 64.8°F18.2°C 100% - N16091.8 kmh N -- 30.10 in1019.3 mb 0.71 in18.0 mm 0.00 in/hr0.0 mm/hr 1.77 in45.0 mm
07:50 AM 64.8°F18.2°C 64.8°F18.2°C 100% - N16091.8 kmh N -- 30.10 in1019.3 mb 0.71 in18.0 mm 1.20 in/hr30.5 mm/hr 1.77 in45.0 mm
07:46 AM 64.8°F18.2°C 64.8°F18.2°C 100% - N16091.8 kmh N -- 30.10 in1019.3 mb 0.63 in16.0 mm 0.48 in/hr12.2 mm/hr 1.69 in42.9 mm
07:41 AM 64.9°F18.3°C 64.9°F18.3°C 100% - N16091.8 kmh N -- 30.10 in1019.3 mb 0.59 in15.0 mm 0.00 in/hr0.0 mm/hr 1.65 in41.9 mm
07:36 AM 64.9°F18.3°C 64.9°F18.3°C 100% - N16091.8 kmh N -- 30.10 in1019.3 mb 0.59 in15.0 mm 0.40 in/hr10.2 mm/hr 1.65 in41.9 mm
07:30 AM 64.9°F18.3°C 64.9°F18.3°C 100% - N16091.8 kmh N -- 30.10 in1019.3 mb 0.55 in14.0 mm 0.00 in/hr0.0 mm/hr 1.61 in40.9 mm
07:25 AM 64.9°F18.3°C 64.9°F18.3°C 100% - N16091.8 kmh N -- 30.13 in1020.3 mb 0.55 in14.0 mm 0.60 in/hr15.2 mm/hr 1.61 in40.9 mm
07:18 AM 65.1°F18.4°C 65.1°F18.4°C 100% - N16091.8 kmh N -- 30.13 in1020.3 mb 0.48 in12.2 mm 0.60 in/hr15.2 mm/hr 1.54 in39.1 mm
07:14 AM 65.1°F18.4°C 65.1°F18.4°C 100% - N16091.8 kmh N -- 30.13 in1020.3 mb 0.44 in11.2 mm 1.92 in/hr48.8 mm/hr 1.42 in36.1 mm
07:09 AM 65.1°F18.4°C 65.1°F18.4°C 100% - N16091.8 kmh N -- 30.10 in1019.3 mb 0.28 in7.1 mm 1.92 in/hr48.8 mm/hr 1.26 in32.0 mm
07:04 AM 65.3°F18.5°C 65.3°F18.5°C 100% - N16091.8 kmh N -- 30.10 in1019.3 mb 0.12 in3.0 mm 0.04 in/hr1.0 mm/hr 1.10 in27.9 mm
06:58 AM 65.3°F18.5°C 65.3°F18.5°C 100% - N16091.8 kmh N -- 30.10 in1019.3 mb 0.08 in2.0 mm 0.00 in/hr0.0 mm/hr 1.06 in26.9 mm
06:53 AM 65.5°F18.6°C 65.5°F18.6°C 100% - N16091.8 kmh N -- 30.07 in1018.3 mb 0.15 in3.8 mm 0.00 in/hr0.0 mm/hr 1.06 in26.9 mm
06:48 AM 65.3°F18.5°C 65.3°F18.5°C 100% - N16091.8 kmh N -- 30.07 in1018.3 mb 0.19 in4.8 mm 0.00 in/hr0.0 mm/hr 1.06 in26.9 mm
06:43 AM 65.3°F18.5°C 65.3°F18.5°C 100% - N16091.8 kmh N -- 30.07 in1018.3 mb 0.31 in7.9 mm 0.00 in/hr0.0 mm/hr 1.06 in26.9 mm
06:38 AM 65.3°F18.5°C 65.3°F18.5°C 100% - N16091.8 kmh N -- 30.10 in1019.3 mb 0.39 in9.9 mm 0.00 in/hr0.0 mm/hr 1.06 in26.9 mm
06:34 AM 65.3°F18.5°C 65.3°F18.5°C 100% - N16091.8 kmh N -- 30.10 in1019.3 mb 0.39 in9.9 mm 0.00 in/hr0.0 mm/hr 1.06 in26.9 mm
06:28 AM 65.3°F18.5°C 65.3°F18.5°C 100% - N16091.8 kmh N -- 30.10 in1019.3 mb 0.39 in9.9 mm 0.00 in/hr0.0 mm/hr 1.06 in26.9 mm
06:23 AM 65.3°F18.5°C 65.3°F18.5°C 100% - N16091.8 kmh N -- 30.10 in1019.3 mb 0.39 in9.9 mm 0.00 in/hr0.0 mm/hr 1.06 in26.9 mm
06:18 AM 65.3°F18.5°C 65.3°F18.5°C 100% - N16091.8 kmh N -- 30.10 in1019.3 mb 0.43 in10.9 mm 0.96 in/hr24.4 mm/hr 1.06 in26.9 mm
06:13 AM 65.3°F18.5°C 65.3°F18.5°C 100% - N16091.8 kmh N -- 30.10 in1019.3 mb 0.35 in8.9 mm 0.00 in/hr0.0 mm/hr 0.98 in24.9 mm
06:09 AM 65.3°F18.5°C 65.3°F18.5°C 100% - N16091.8 kmh N -- 30.10 in1019.3 mb 0.39 in9.9 mm 0.00 in/hr0.0 mm/hr 0.98 in24.9 mm
06:03 AM 65.3°F18.5°C 65.3°F18.5°C 100% - N16091.8 kmh N -- 30.10 in1019.3 mb 0.39 in9.9 mm 0.00 in/hr0.0 mm/hr 0.98 in24.9 mm
05:58 AM 65.5°F18.6°C 65.5°F18.6°C 100% - N16091.8 kmh N -- 30.10 in1019.3 mb 0.39 in9.9 mm 0.84 in/hr21.3 mm/hr 0.98 in24.9 mm
05:53 AM 65.5°F18.6°C 65.5°F18.6°C 100% - N16091.8 kmh N -- 30.10 in1019.3 mb 0.32 in8.1 mm 0.48 in/hr12.2 mm/hr 0.91 in23.1 mm
05:48 AM 65.5°F18.6°C 65.5°F18.6°C 100% - N16091.8 kmh N -- 30.10 in1019.3 mb 0.28 in7.1 mm 1.44 in/hr36.6 mm/hr 0.87 in22.1 mm
05:43 AM 65.5°F18.6°C 65.5°F18.6°C 100% - N16091.8 kmh N -- 30.10 in1019.3 mb 0.16 in4.1 mm 0.96 in/hr24.4 mm/hr 0.75 in19.1 mm
05:38 AM 65.5°F18.6°C 65.5°F18.6°C 100% - N16091.8 kmh N -- 30.07 in1018.3 mb 0.08 in2.0 mm 0.00 in/hr0.0 mm/hr 0.67 in17.0 mm
05:33 AM 65.5°F18.6°C 65.5°F18.6°C 100% - N16091.8 kmh N -- 30.07 in1018.3 mb 0.08 in2.0 mm 0.00 in/hr0.0 mm/hr 0.67 in17.0 mm
05:27 AM 65.5°F18.6°C 65.5°F18.6°C 100% - N16091.8 kmh N -- 30.07 in1018.3 mb 0.08 in2.0 mm 0.00 in/hr0.0 mm/hr 0.67 in17.0 mm
05:22 AM 65.7°F18.7°C 65.7°F18.7°C 100% - N16091.8 kmh N -- 30.07 in1018.3 mb 0.08 in2.0 mm 0.00 in/hr0.0 mm/hr 0.67 in17.0 mm
05:17 AM 65.5°F18.6°C 65.5°F18.6°C 100% - N16091.8 kmh N -- 30.07 in1018.3 mb 0.08 in2.0 mm 0.48 in/hr12.2 mm/hr 0.63 in16.0 mm
05:12 AM 65.7°F18.7°C 65.7°F18.7°C 100% - N16091.8 kmh N -- 30.07 in1018.3 mb 0.04 in1.0 mm 0.00 in/hr0.0 mm/hr 0.59 in15.0 mm
05:07 AM 65.7°F18.7°C 65.7°F18.7°C 100% - N16091.8 kmh N -- 30.07 in1018.3 mb 0.04 in1.0 mm 0.00 in/hr0.0 mm/hr 0.59 in15.0 mm
05:02 AM 65.7°F18.7°C 65.7°F18.7°C 100% - N16091.8 kmh N -- 30.07 in1018.3 mb 0.08 in2.0 mm 0.00 in/hr0.0 mm/hr 0.59 in15.0 mm
04:57 AM 65.8°F18.8°C 65.8°F18.8°C 100% - N16091.8 kmh N -- 30.07 in1018.3 mb 0.08 in2.0 mm 0.00 in/hr0.0 mm/hr 0.59 in15.0 mm
04:52 AM 65.8°F18.8°C 65.8°F18.8°C 100% - N16091.8 kmh N -- 30.10 in1019.3 mb 0.16 in4.1 mm 0.00 in/hr0.0 mm/hr 0.59 in15.0 mm
04:47 AM 66.0°F18.9°C 66.0°F18.9°C 100% - N16091.8 kmh N -- 30.10 in1019.3 mb 0.24 in6.1 mm 0.00 in/hr0.0 mm/hr 0.59 in15.0 mm
04:42 AM 66.0°F18.9°C 66.0°F18.9°C 100% - N16091.8 kmh N -- 30.10 in1019.3 mb 0.35 in8.9 mm 0.00 in/hr0.0 mm/hr 0.59 in15.0 mm
04:37 AM 66.0°F18.9°C 66.0°F18.9°C 100% - N16091.8 kmh N -- 30.10 in1019.3 mb 0.43 in10.9 mm 0.00 in/hr0.0 mm/hr 0.59 in15.0 mm
04:32 AM 66.0°F18.9°C 66.0°F18.9°C 100% - N16091.8 kmh N -- 30.10 in1019.3 mb 0.43 in10.9 mm 0.00 in/hr0.0 mm/hr 0.59 in15.0 mm
04:27 AM 66.2°F19.0°C 66.2°F19.0°C 100% - N16091.8 kmh N -- 30.10 in1019.3 mb 0.47 in11.9 mm 0.00 in/hr0.0 mm/hr 0.59 in15.0 mm
04:22 AM 66.2°F19.0°C 66.2°F19.0°C 100% - N16091.8 kmh N -- 30.10 in1019.3 mb 0.51 in13.0 mm 0.48 in/hr12.2 mm/hr 0.59 in15.0 mm
04:17 AM 66.2°F19.0°C 66.2°F19.0°C 100% - N16091.8 kmh N -- 30.10 in1019.3 mb 0.47 in11.9 mm 0.00 in/hr0.0 mm/hr 0.55 in14.0 mm
04:12 AM 66.2°F19.0°C 66.2°F19.0°C 100% - N16091.8 kmh N -- 30.10 in1019.3 mb 0.47 in11.9 mm 0.00 in/hr0.0 mm/hr 0.55 in14.0 mm
04:07 AM 66.6°F19.2°C 66.6°F19.2°C 100% - N16091.8 kmh N -- 30.13 in1020.3 mb 0.47 in11.9 mm 0.48 in/hr12.2 mm/hr 0.55 in14.0 mm
04:02 AM 66.7°F19.3°C 66.7°F19.3°C 100% - N16091.8 kmh N -- 30.13 in1020.3 mb 0.43 in10.9 mm 0.00 in/hr0.0 mm/hr 0.51 in13.0 mm
03:56 AM 66.9°F19.4°C 66.9°F19.4°C 100% - N16091.8 kmh N -- 30.13 in1020.3 mb 0.47 in11.9 mm 0.96 in/hr24.4 mm/hr 0.51 in13.0 mm
03:51 AM 66.9°F19.4°C 66.9°F19.4°C 100% - N16091.8 kmh N -- 30.13 in1020.3 mb 0.39 in9.9 mm 0.96 in/hr24.4 mm/hr 0.43 in10.9 mm
03:46 AM 67.1°F19.5°C 67.1°F19.5°C 100% - N16091.8 kmh N -- 30.13 in1020.3 mb 0.31 in7.9 mm 1.80 in/hr45.7 mm/hr 0.35 in8.9 mm
03:41 AM 67.1°F19.5°C 67.1°F19.5°C 100% - N16091.8 kmh N -- 30.13 in1020.3 mb 0.16 in4.1 mm 0.48 in/hr12.2 mm/hr 0.20 in5.1 mm
03:36 AM 67.1°F19.5°C 67.1°F19.5°C 100% - N16091.8 kmh N -- 30.13 in1020.3 mb 0.12 in3.0 mm 0.00 in/hr0.0 mm/hr 0.16 in4.1 mm
03:31 AM 67.1°F19.5°C 67.1°F19.5°C 100% - N16091.8 kmh N -- 30.13 in1020.3 mb 0.12 in3.0 mm 0.34 in/hr8.6 mm/hr 0.16 in4.1 mm
03:24 AM 67.1°F19.5°C 67.1°F19.5°C 100% - N16091.8 kmh N -- 30.10 in1019.3 mb 0.08 in2.0 mm 0.48 in/hr12.2 mm/hr 0.12 in3.0 mm
03:19 AM 67.1°F19.5°C 67.1°F19.5°C 100% - N16091.8 kmh N -- 30.10 in1019.3 mb 0.04 in1.0 mm 0.00 in/hr0.0 mm/hr 0.08 in2.0 mm
03:13 AM 67.3°F19.6°C 67.3°F19.6°C 100% - N16091.8 kmh N -- 30.10 in1019.3 mb 0.04 in1.0 mm 0.00 in/hr0.0 mm/hr 0.08 in2.0 mm
03:08 AM 67.3°F19.6°C 67.3°F19.6°C 100% - N16091.8 kmh N -- 30.10 in1019.3 mb 0.04 in1.0 mm 0.00 in/hr0.0 mm/hr 0.08 in2.0 mm
03:03 AM 67.3°F19.6°C 67.3°F19.6°C 100% - N16091.8 kmh N -- 30.10 in1019.3 mb 0.04 in1.0 mm 0.04 in/hr1.0 mm/hr 0.08 in2.0 mm
02:58 AM 67.3°F19.6°C 67.3°F19.6°C 100% - N16091.8 kmh N -- 30.10 in1019.3 mb 0.00 in0.0 mm 0.00 in/hr0.0 mm/hr 0.04 in1.0 mm
02:53 AM 67.5°F19.7°C 67.5°F19.7°C 100% - N16091.8 kmh N -- 30.10 in1019.3 mb 0.00 in0.0 mm 0.00 in/hr0.0 mm/hr 0.04 in1.0 mm
02:48 AM 67.5°F19.7°C 67.5°F19.7°C 100% - N16091.8 kmh N -- 30.10 in1019.3 mb 0.00 in0.0 mm 0.00 in/hr0.0 mm/hr 0.04 in1.0 mm
02:42 AM 67.5°F19.7°C 67.5°F19.7°C 100% - N16091.8 kmh N -- 30.10 in1019.3 mb 0.00 in0.0 mm 0.00 in/hr0.0 mm/hr 0.04 in1.0 mm
02:37 AM 67.5°F19.7°C 67.5°F19.7°C 100% - N16091.8 kmh N -- 30.10 in1019.3 mb 0.00 in0.0 mm 0.00 in/hr0.0 mm/hr 0.04 in1.0 mm
02:32 AM 67.6°F19.8°C 67.6°F19.8°C 100% - N16091.8 kmh N -- 30.10 in1019.3 mb 0.00 in0.0 mm 0.00 in/hr0.0 mm/hr 0.04 in1.0 mm
02:27 AM 67.6°F19.8°C 67.6°F19.8°C 100% - N16091.8 kmh N -- 30.10 in1019.3 mb 0.00 in0.0 mm 0.00 in/hr0.0 mm/hr 0.04 in1.0 mm
02:22 AM 67.6°F19.8°C 67.6°F19.8°C 100% - N16091.8 kmh N -- 30.10 in1019.3 mb 0.00 in0.0 mm 0.00 in/hr0.0 mm/hr 0.04 in1.0 mm
02:17 AM 67.6°F19.8°C 67.6°F19.8°C 100% - N16091.8 kmh N -- 30.10 in1019.3 mb 0.00 in0.0 mm 0.00 in/hr0.0 mm/hr 0.04 in1.0 mm
02:11 AM 67.6°F19.8°C 67.6°F19.8°C 100% - N16091.8 kmh N -- 30.10 in1019.3 mb 0.00 in0.0 mm 0.00 in/hr0.0 mm/hr 0.04 in1.0 mm
02:06 AM 67.6°F19.8°C 67.6°F19.8°C 100% - N16091.8 kmh N -- 30.10 in1019.3 mb 0.00 in0.0 mm 0.00 in/hr0.0 mm/hr 0.04 in1.0 mm
02:01 AM 67.6°F19.8°C 67.6°F19.8°C 100% - N16091.8 kmh N -- 30.10 in1019.3 mb 0.00 in0.0 mm 0.00 in/hr0.0 mm/hr 0.04 in1.0 mm
01:56 AM 67.6°F19.8°C 67.6°F19.8°C 100% - N16091.8 kmh N -- 30.10 in1019.3 mb 0.00 in0.0 mm 0.00 in/hr0.0 mm/hr 0.04 in1.0 mm
01:52 AM 67.6°F19.8°C 67.6°F19.8°C 100% - N16091.8 kmh N -- 30.13 in1020.3 mb 0.00 in0.0 mm 0.00 in/hr0.0 mm/hr 0.04 in1.0 mm
01:47 AM 67.6°F19.8°C 67.6°F19.8°C 100% - N16091.8 kmh N -- 30.13 in1020.3 mb 0.00 in0.0 mm 0.00 in/hr0.0 mm/hr 0.04 in1.0 mm
01:42 AM 67.6°F19.8°C 67.6°F19.8°C 100% - N16091.8 kmh N -- 30.13 in1020.3 mb 0.00 in0.0 mm 0.00 in/hr0.0 mm/hr 0.04 in1.0 mm
01:37 AM 67.6°F19.8°C 67.6°F19.8°C 100% - N16091.8 kmh N -- 30.13 in1020.3 mb 0.00 in0.0 mm 0.00 in/hr0.0 mm/hr 0.04 in1.0 mm
01:31 AM 67.6°F19.8°C 67.6°F19.8°C 100% - N16091.8 kmh N -- 30.13 in1020.3 mb 0.00 in0.0 mm 0.00 in/hr0.0 mm/hr 0.04 in1.0 mm
01:27 AM 67.6°F19.8°C 67.6°F19.8°C 100% - N16091.8 kmh N -- 30.13 in1020.3 mb 0.00 in0.0 mm 0.00 in/hr0.0 mm/hr 0.04 in1.0 mm
01:21 AM 67.6°F19.8°C 67.6°F19.8°C 100% - N16091.8 kmh N -- 30.13 in1020.3 mb 0.00 in0.0 mm 0.00 in/hr0.0 mm/hr 0.04 in1.0 mm
01:16 AM 67.6°F19.8°C 67.6°F19.8°C 100% - N16091.8 kmh N -- 30.13 in1020.3 mb 0.00 in0.0 mm 0.00 in/hr0.0 mm/hr 0.04 in1.0 mm
01:12 AM 67.6°F19.8°C 67.6°F19.8°C 100% - N16091.8 kmh N -- 30.13 in1020.3 mb 0.00 in0.0 mm 0.00 in/hr0.0 mm/hr 0.04 in1.0 mm
01:07 AM 67.6°F19.8°C 67.6°F19.8°C 100% - N16091.8 kmh N -- 30.13 in1020.3 mb 0.00 in0.0 mm 0.00 in/hr0.0 mm/hr 0.04 in1.0 mm
01:00 AM 67.6°F19.8°C 67.6°F19.8°C 100% - N16091.8 kmh N -- 30.13 in1020.3 mb 0.04 in1.0 mm 0.00 in/hr0.0 mm/hr 0.04 in1.0 mm
12:55 AM 67.6°F19.8°C 67.6°F19.8°C 100% - N16091.8 kmh N -- 30.13 in1020.3 mb 0.04 in1.0 mm 0.00 in/hr0.0 mm/hr 0.04 in1.0 mm
12:50 AM 67.6°F19.8°C 67.6°F19.8°C 100% - N16091.8 kmh N -- 30.13 in1020.3 mb 0.04 in1.0 mm 0.00 in/hr0.0 mm/hr 0.04 in1.0 mm
12:45 AM 67.6°F19.8°C 67.6°F19.8°C 100% - N16091.8 kmh N -- 30.13 in1020.3 mb 0.04 in1.0 mm 0.00 in/hr0.0 mm/hr 0.04 in1.0 mm
12:39 AM 67.6°F19.8°C 67.6°F19.8°C 100% - N16091.8 kmh N -- 30.13 in1020.3 mb 0.04 in1.0 mm 0.00 in/hr0.0 mm/hr 0.04 in1.0 mm
12:34 AM 67.6°F19.8°C 67.6°F19.8°C 100% - N16091.8 kmh N -- 30.13 in1020.3 mb 0.04 in1.0 mm 0.00 in/hr0.0 mm/hr 0.04 in1.0 mm
12:29 AM 67.8°F19.9°C 67.8°F19.9°C 100% - N16091.8 kmh N -- 30.13 in1020.3 mb 0.04 in1.0 mm 0.00 in/hr0.0 mm/hr 0.04 in1.0 mm
12:24 AM 67.8°F19.9°C 67.8°F19.9°C 100% - N16091.8 kmh N -- 30.16 in1021.3 mb 0.04 in1.0 mm 0.00 in/hr0.0 mm/hr 0.04 in1.0 mm
12:18 AM 67.8°F19.9°C 67.8°F19.9°C 100% - N16091.8 kmh N -- 30.16 in1021.3 mb 0.04 in1.0 mm 0.00 in/hr0.0 mm/hr 0.04 in1.0 mm
12:13 AM 67.8°F19.9°C 67.8°F19.9°C 100% - N16091.8 kmh N -- 30.16 in1021.3 mb 0.04 in1.0 mm 0.00 in/hr0.0 mm/hr 0.04 in1.0 mm
12:08 AM 67.8°F19.9°C 67.8°F19.9°C 100% - N16091.8 kmh N -- 30.16 in1021.3 mb 0.04 in1.0 mm 0.48 in/hr12.2 mm/hr 0.04 in1.0 mm
12:03 AM 67.8°F19.9°C 67.8°F19.9°C 100% - N16091.8 kmh N -- 30.16 in1021.3 mb 0.00 in0.0 mm 0.00 in/hr0.0 mm/hr 0.00 in0.0 mm